createdAt,value
2016-10-03T00:00:35.341Z,0
2016-10-03T00:01:35.356Z,0
2016-10-03T00:02:35.392Z,0
2016-10-03T00:03:35.405Z,0
2016-10-03T00:04:35.419Z,0
2016-10-03T00:05:35.435Z,0
2016-10-03T00:06:35.462Z,0
2016-10-03T00:07:35.471Z,0
2016-10-03T00:08:35.484Z,0
2016-10-03T00:09:35.493Z,0
2016-10-03T00:10:35.512Z,0
2016-10-03T00:11:35.530Z,0
2016-10-03T00:12:35.564Z,0
2016-10-03T00:13:35.573Z,0
2016-10-03T00:14:35.595Z,0
2016-10-03T00:15:35.598Z,0
2016-10-03T00:16:35.620Z,0
2016-10-03T00:17:35.650Z,0
2016-10-03T00:18:35.659Z,0
2016-10-03T00:19:35.670Z,0
2016-10-03T00:20:35.707Z,0
2016-10-03T00:21:35.719Z,0
2016-10-03T00:22:35.727Z,0
2016-10-03T00:23:35.750Z,0
2016-10-03T00:24:35.763Z,0
2016-10-03T00:25:35.776Z,0
2016-10-03T00:26:35.813Z,0
2016-10-03T00:27:35.815Z,0
2016-10-03T00:28:35.846Z,0
2016-10-03T00:29:35.843Z,0
2016-10-03T00:30:35.882Z,0
2016-10-03T00:31:35.882Z,0
2016-10-03T00:32:35.907Z,0
2016-10-03T00:33:35.924Z,0
2016-10-03T00:34:35.947Z,0
2016-10-03T00:35:35.965Z,0
2016-10-03T00:36:35.978Z,0
2016-10-03T00:37:36.007Z,0
2016-10-03T00:38:36.005Z,0
2016-10-03T00:39:36.046Z,0
2016-10-03T00:40:36.062Z,0
2016-10-03T00:41:36.086Z,0
2016-10-03T00:42:36.099Z,0
2016-10-03T00:43:36.097Z,0
2016-10-03T00:44:36.128Z,0
2016-10-03T00:45:36.155Z,0
2016-10-03T00:46:36.155Z,0
2016-10-03T00:47:36.168Z,0
2016-10-03T00:48:36.196Z,0
2016-10-03T00:49:36.208Z,0
2016-10-03T00:50:36.227Z,0
2016-10-03T00:51:36.248Z,0
2016-10-03T00:52:36.262Z,0
2016-10-03T00:53:36.275Z,0
2016-10-03T00:54:36.304Z,0
2016-10-03T00:55:36.319Z,0
2016-10-03T00:56:36.331Z,0
2016-10-03T00:57:36.351Z,0
2016-10-03T00:58:36.370Z,0
2016-10-03T00:59:36.396Z,0
2016-10-03T01:00:36.408Z,0
2016-10-03T01:01:36.430Z,0
2016-10-03T01:02:36.441Z,0
2016-10-03T01:03:36.448Z,0
2016-10-03T01:04:36.476Z,0
2016-10-03T01:05:36.485Z,0
2016-10-03T01:06:36.520Z,0
2016-10-03T01:07:36.542Z,0
2016-10-03T01:08:36.542Z,0
2016-10-03T01:09:36.573Z,0
2016-10-03T01:10:36.580Z,0
2016-10-03T01:11:36.598Z,0
2016-10-03T01:12:36.630Z,0
2016-10-03T01:13:36.632Z,0
2016-10-03T01:14:36.647Z,0
2016-10-03T01:15:36.665Z,0
2016-10-03T01:16:36.700Z,0
2016-10-03T01:17:36.687Z,0
2016-10-03T01:18:36.706Z,0
2016-10-03T01:19:36.733Z,0
2016-10-03T01:20:36.746Z,0
2016-10-03T01:21:36.764Z,0
2016-10-03T01:22:36.781Z,0
2016-10-03T01:23:36.813Z,0
2016-10-03T01:24:36.839Z,0
2016-10-03T01:25:36.839Z,0
2016-10-03T01:26:36.872Z,0
2016-10-03T01:27:36.879Z,0
2016-10-03T01:28:36.888Z,0
2016-10-03T01:29:36.900Z,0
2016-10-03T01:30:36.936Z,0
2016-10-03T01:31:36.949Z,0
2016-10-03T01:32:36.989Z,0
2016-10-03T01:33:36.977Z,0
2016-10-03T01:34:36.992Z,0
2016-10-03T01:35:37.018Z,0
2016-10-03T01:36:37.036Z,0
2016-10-03T01:37:37.043Z,0
2016-10-03T01:38:37.062Z,0
2016-10-03T01:39:37.083Z,0
2016-10-03T01:40:37.103Z,0
2016-10-03T01:41:37.113Z,0
2016-10-03T01:42:37.146Z,0
2016-10-03T01:43:37.156Z,0
2016-10-03T01:44:37.171Z,0
2016-10-03T01:45:37.203Z,0
2016-10-03T01:46:37.218Z,0
2016-10-03T01:47:37.242Z,0
2016-10-03T01:48:37.259Z,0
2016-10-03T01:49:37.256Z,0
2016-10-03T01:50:37.290Z,0
2016-10-03T01:51:37.305Z,0
2016-10-03T01:52:37.338Z,0
2016-10-03T01:53:37.323Z,0
2016-10-03T01:54:37.345Z,0
2016-10-03T01:55:37.385Z,0
2016-10-03T01:56:37.386Z,0
2016-10-03T01:57:37.403Z,0
2016-10-03T01:58:37.419Z,0
2016-10-03T01:59:37.433Z,0
2016-10-03T02:00:37.435Z,0
2016-10-03T02:01:37.476Z,0
2016-10-03T02:02:37.496Z,0
2016-10-03T02:03:37.509Z,0
2016-10-03T02:04:37.516Z,0
2016-10-03T02:05:37.547Z,0
2016-10-03T02:06:37.545Z,0
2016-10-03T02:07:37.569Z,0
2016-10-03T02:08:37.594Z,0
2016-10-03T02:09:37.602Z,0
2016-10-03T02:10:37.617Z,0
2016-10-03T02:11:37.644Z,0
2016-10-03T02:12:37.670Z,0
2016-10-03T02:13:37.670Z,0
2016-10-03T02:14:37.692Z,0
2016-10-03T02:15:37.721Z,0
2016-10-03T02:16:37.714Z,0
2016-10-03T02:17:37.758Z,0
2016-10-03T02:18:37.762Z,0
2016-10-03T02:19:37.776Z,0
2016-10-03T02:20:37.805Z,0
2016-10-03T02:21:37.819Z,0
2016-10-03T02:22:37.822Z,0
2016-10-03T02:23:37.852Z,0
2016-10-03T02:24:37.868Z,0
2016-10-03T02:25:37.865Z,0
2016-10-03T02:26:37.893Z,0
2016-10-03T02:27:37.926Z,0
2016-10-03T02:28:37.922Z,0
2016-10-03T02:29:37.965Z,0
2016-10-03T02:30:37.967Z,0
2016-10-03T02:31:37.995Z,0
2016-10-03T02:32:38.001Z,0
2016-10-03T02:33:38.024Z,0
2016-10-03T02:34:38.038Z,0
2016-10-03T02:35:38.049Z,0
2016-10-03T02:36:38.078Z,0
2016-10-03T02:37:38.086Z,0
2016-10-03T02:38:38.110Z,0
2016-10-03T02:39:38.125Z,0
2016-10-03T02:40:38.150Z,0
2016-10-03T02:41:38.153Z,0
2016-10-03T02:42:38.158Z,0
2016-10-03T02:43:38.192Z,0
2016-10-03T02:44:38.202Z,0
2016-10-03T02:45:38.226Z,0
2016-10-03T02:46:38.234Z,0
2016-10-03T02:47:38.247Z,0
2016-10-03T02:48:38.264Z,0
2016-10-03T02:49:38.292Z,0
2016-10-03T02:50:38.303Z,0
2016-10-03T02:51:38.326Z,0
2016-10-03T02:52:38.335Z,0
2016-10-03T02:53:38.351Z,0
2016-10-03T02:54:38.378Z,0
2016-10-03T02:55:38.394Z,0
2016-10-03T02:56:38.407Z,0
2016-10-03T02:57:38.420Z,0
2016-10-03T02:58:38.434Z,0
2016-10-03T02:59:38.469Z,0
2016-10-03T03:00:38.479Z,0
2016-10-03T03:01:38.499Z,0
2016-10-03T03:02:38.514Z,0
2016-10-03T03:03:38.520Z,0
2016-10-03T03:04:38.530Z,0
2016-10-03T03:05:38.560Z,0
2016-10-03T03:06:38.571Z,0
2016-10-03T03:07:38.598Z,0
2016-10-03T03:08:38.599Z,0
2016-10-03T03:09:38.619Z,0
2016-10-03T03:10:38.639Z,0
2016-10-03T03:11:38.656Z,0
2016-10-03T03:12:38.685Z,0
2016-10-03T03:13:38.693Z,0
2016-10-03T03:14:38.706Z,0
2016-10-03T03:15:38.728Z,0
2016-10-03T03:16:38.749Z,0
2016-10-03T03:17:38.762Z,0
2016-10-03T03:18:38.768Z,0
2016-10-03T03:19:38.782Z,0
2016-10-03T03:20:38.816Z,0
2016-10-03T03:21:38.823Z,0
2016-10-03T03:22:38.843Z,0
2016-10-03T03:23:38.850Z,0
2016-10-03T03:24:38.883Z,0
2016-10-03T03:25:38.892Z,0
2016-10-03T03:26:38.927Z,0
2016-10-03T03:27:38.931Z,0
2016-10-03T03:28:38.959Z,0
2016-10-03T03:29:38.963Z,0
2016-10-03T03:30:38.989Z,0
2016-10-03T03:31:39.008Z,0
2016-10-03T03:32:39.023Z,0
2016-10-03T03:33:39.051Z,0
2016-10-03T03:34:39.044Z,0
2016-10-03T03:35:39.069Z,0
2016-10-03T03:36:39.078Z,0
2016-10-03T03:37:39.107Z,0
2016-10-03T03:38:39.119Z,0
2016-10-03T03:39:39.155Z,0
2016-10-03T03:40:39.162Z,0
2016-10-03T03:41:39.171Z,0
2016-10-03T03:42:39.198Z,0
2016-10-03T03:43:39.202Z,0
2016-10-03T03:44:39.217Z,0
2016-10-03T03:45:39.240Z,0
2016-10-03T03:46:39.250Z,0
2016-10-03T03:47:39.272Z,0
2016-10-03T03:48:39.269Z,0
2016-10-03T03:49:39.310Z,0
2016-10-03T03:50:39.322Z,0
2016-10-03T03:51:39.337Z,0
2016-10-03T03:52:39.353Z,0
2016-10-03T03:53:39.369Z,0
2016-10-03T03:54:39.391Z,0
2016-10-03T03:55:39.416Z,0
2016-10-03T03:56:39.432Z,0
2016-10-03T03:57:39.447Z,0
2016-10-03T03:58:39.448Z,0
2016-10-03T03:59:39.461Z,0
2016-10-03T04:01:39.484Z,0
2016-10-03T04:02:39.508Z,0
2016-10-03T04:03:39.830Z,0
2016-10-03T04:04:39.529Z,0
2016-10-03T04:05:39.557Z,0
2016-10-03T04:06:39.576Z,0
2016-10-03T04:07:39.590Z,0
2016-10-03T04:08:39.604Z,0
2016-10-03T04:09:39.626Z,0
2016-10-03T04:10:39.640Z,0
2016-10-03T04:11:39.659Z,0
2016-10-03T04:12:39.705Z,0
2016-10-03T04:13:39.702Z,0
2016-10-03T04:14:39.722Z,0
2016-10-03T04:15:39.727Z,0
2016-10-03T04:16:39.754Z,0
2016-10-03T04:17:39.755Z,0
2016-10-03T04:18:39.785Z,0
2016-10-03T04:19:39.802Z,0
2016-10-03T04:20:39.816Z,0
2016-10-03T04:21:39.833Z,0
2016-10-03T04:22:39.866Z,0
2016-10-03T04:23:39.864Z,0
2016-10-03T04:24:39.894Z,0
2016-10-03T04:25:39.913Z,0
2016-10-03T04:26:39.928Z,0
2016-10-03T04:27:39.926Z,0
2016-10-03T04:28:39.951Z,0
2016-10-03T04:29:39.975Z,0
2016-10-03T04:30:39.994Z,0
2016-10-03T04:31:39.995Z,0
2016-10-03T04:32:40.039Z,0
2016-10-03T04:33:40.021Z,0
2016-10-03T04:34:40.055Z,0
2016-10-03T04:35:40.072Z,0
2016-10-03T04:36:40.072Z,0
2016-10-03T04:37:40.109Z,0
2016-10-03T04:38:40.131Z,0
2016-10-03T04:39:40.162Z,0
2016-10-03T04:40:40.155Z,0
2016-10-03T04:41:40.172Z,0
2016-10-03T04:42:40.190Z,0
2016-10-03T04:43:40.219Z,0
2016-10-03T04:44:40.222Z,0
2016-10-03T04:45:40.233Z,0
2016-10-03T04:46:40.256Z,0
2016-10-03T04:47:40.297Z,0
2016-10-03T04:48:40.305Z,0
2016-10-03T04:49:40.314Z,0
2016-10-03T04:50:40.338Z,0
2016-10-03T04:51:40.357Z,0
2016-10-03T04:52:40.366Z,0
2016-10-03T04:53:40.385Z,0
2016-10-03T04:54:40.416Z,0
2016-10-03T04:55:40.399Z,0
2016-10-03T04:56:40.443Z,0
2016-10-03T04:57:40.470Z,0
2016-10-03T04:58:40.488Z,0
2016-10-03T04:59:40.503Z,0
2016-10-03T05:00:40.522Z,0
2016-10-03T05:01:40.518Z,0
2016-10-03T05:02:40.544Z,0
2016-10-03T05:03:40.562Z,0
2016-10-03T05:04:40.578Z,0
2016-10-03T05:05:40.586Z,0
2016-10-03T05:06:40.604Z,0
2016-10-03T05:07:40.637Z,4
2016-10-03T05:08:40.643Z,0
2016-10-03T05:09:40.654Z,4
2016-10-03T05:10:40.687Z,4
2016-10-03T05:11:40.691Z,4
2016-10-03T05:12:40.724Z,8
2016-10-03T05:13:40.723Z,4
2016-10-03T05:14:40.759Z,8
2016-10-03T05:15:40.759Z,12
2016-10-03T05:16:40.788Z,8
2016-10-03T05:17:40.801Z,16
2016-10-03T05:18:40.826Z,12
2016-10-03T05:19:40.835Z,16
2016-10-03T05:20:40.853Z,16
2016-10-03T05:21:40.868Z,20
2016-10-03T05:22:40.979Z,20
2016-10-03T05:23:40.893Z,24
2016-10-03T05:24:40.919Z,20
2016-10-03T05:25:40.951Z,28
2016-10-03T05:26:40.958Z,28
2016-10-03T05:27:40.989Z,28
2016-10-03T05:28:40.997Z,32
2016-10-03T05:29:41.006Z,32
2016-10-03T05:30:41.029Z,36
2016-10-03T05:31:41.024Z,32
2016-10-03T05:32:41.073Z,40
2016-10-03T05:33:41.072Z,40
2016-10-03T05:34:41.081Z,44
2016-10-03T05:35:41.101Z,44
2016-10-03T05:36:41.127Z,48
2016-10-03T05:37:41.128Z,52
2016-10-03T05:38:41.176Z,56
2016-10-03T05:39:41.175Z,60
2016-10-03T05:40:41.211Z,60
2016-10-03T05:41:41.217Z,68
2016-10-03T05:42:41.215Z,68
2016-10-03T05:43:41.257Z,76
2016-10-03T05:44:41.248Z,80
2016-10-03T05:45:41.284Z,92
2016-10-03T05:46:41.299Z,100
2016-10-03T05:47:41.319Z,104
2016-10-03T05:48:41.346Z,108
2016-10-03T05:49:41.355Z,112
2016-10-03T05:50:41.364Z,120
2016-10-03T05:51:41.382Z,124
2016-10-03T05:52:41.405Z,144
2016-10-03T05:53:41.433Z,148
2016-10-03T05:54:41.447Z,148
2016-10-03T05:55:41.439Z,172
2016-10-03T05:56:41.481Z,176
2016-10-03T05:57:41.477Z,196
2016-10-03T05:58:41.512Z,200
2016-10-03T05:59:41.529Z,220
2016-10-03T06:00:41.538Z,216
2016-10-03T06:01:41.549Z,220
2016-10-03T06:02:41.571Z,240
2016-10-03T06:03:41.593Z,260
2016-10-03T06:04:41.591Z,328
2016-10-03T06:05:41.648Z,336
2016-10-03T06:06:41.629Z,360
2016-10-03T06:08:41.679Z,408
2016-10-03T06:09:41.685Z,452
2016-10-03T06:10:41.740Z,400
2016-10-03T06:11:41.725Z,384
2016-10-03T06:12:41.747Z,356
2016-10-03T06:13:41.753Z,384
2016-10-03T06:14:41.773Z,396
2016-10-03T06:15:41.806Z,388
2016-10-03T06:16:41.826Z,368
2016-10-03T06:17:41.840Z,396
2016-10-03T06:18:41.848Z,380
2016-10-03T06:19:41.867Z,356
2016-10-03T06:20:41.884Z,392
2016-10-03T06:21:41.892Z,412
2016-10-03T06:22:41.910Z,416
2016-10-03T06:23:41.937Z,440
2016-10-03T06:24:41.945Z,536
2016-10-03T06:25:41.976Z,596
2016-10-03T06:26:41.995Z,636
2016-10-03T06:27:42.016Z,628
2016-10-03T06:28:42.029Z,596
2016-10-03T06:29:42.035Z,592
2016-10-03T06:30:42.033Z,604
2016-10-03T06:31:42.074Z,588
2016-10-03T06:32:42.081Z,596
2016-10-03T06:33:42.099Z,620
2016-10-03T06:34:42.120Z,608
2016-10-03T06:35:42.125Z,644
2016-10-03T06:36:42.160Z,644
2016-10-03T06:37:42.187Z,636
2016-10-03T06:38:42.189Z,656
2016-10-03T06:39:42.208Z,640
2016-10-03T06:40:42.218Z,636
2016-10-03T06:41:42.234Z,660
2016-10-03T06:42:42.256Z,700
2016-10-03T06:43:42.270Z,716
2016-10-03T06:44:42.275Z,736
2016-10-03T06:45:42.316Z,704
2016-10-03T06:46:42.329Z,732
2016-10-03T06:47:42.352Z,744
2016-10-03T06:48:42.367Z,748
2016-10-03T06:49:42.378Z,740
2016-10-03T06:50:42.398Z,724
2016-10-03T06:51:42.411Z,676
2016-10-03T06:52:42.422Z,676
2016-10-03T06:53:42.452Z,676
2016-10-03T06:54:42.494Z,716
2016-10-03T06:55:42.462Z,764
2016-10-03T06:56:42.495Z,780
2016-10-03T06:57:42.531Z,768
2016-10-03T06:58:42.523Z,740
2016-10-03T06:59:42.544Z,752
2016-10-03T07:00:42.558Z,776
2016-10-03T07:01:42.577Z,828
2016-10-03T07:02:42.586Z,864
2016-10-03T07:03:42.629Z,868
2016-10-03T07:04:42.625Z,860
2016-10-03T07:05:42.660Z,828
2016-10-03T07:06:42.660Z,840
2016-10-03T07:07:42.663Z,864
2016-10-03T07:08:42.705Z,848
2016-10-03T07:09:42.732Z,848
2016-10-03T07:10:42.725Z,868
2016-10-03T07:11:42.755Z,904
2016-10-03T07:12:42.757Z,884
2016-10-03T07:13:42.761Z,868
2016-10-03T07:14:42.802Z,872
2016-10-03T07:15:42.815Z,864
2016-10-03T07:16:42.819Z,812
2016-10-03T07:17:42.841Z,788
2016-10-03T07:18:42.852Z,748
2016-10-03T07:19:42.877Z,700
2016-10-03T07:20:42.891Z,648
2016-10-03T07:21:42.924Z,596
2016-10-03T07:22:42.928Z,568
2016-10-03T07:23:42.961Z,540
2016-10-03T07:24:42.982Z,528
2016-10-03T07:25:42.987Z,552
2016-10-03T07:26:43.008Z,632
2016-10-03T07:27:43.025Z,760
2016-10-03T07:28:43.040Z,884
2016-10-03T07:29:43.050Z,1020
2016-10-03T07:30:43.063Z,1092
2016-10-03T07:31:43.076Z,1124
2016-10-03T07:32:43.099Z,1200
2016-10-03T07:33:43.135Z,1252
2016-10-03T07:34:43.146Z,1216
2016-10-03T07:35:43.145Z,1108
2016-10-03T07:36:43.184Z,1056
2016-10-03T07:37:43.168Z,1116
2016-10-03T07:38:43.208Z,1200
2016-10-03T07:39:43.227Z,1280
2016-10-03T07:40:43.245Z,1324
2016-10-03T07:41:43.242Z,1300
2016-10-03T07:42:43.277Z,1256
2016-10-03T07:43:43.289Z,1208
2016-10-03T07:44:43.307Z,1276
2016-10-03T07:45:43.324Z,1460
2016-10-03T07:46:43.352Z,1616
2016-10-03T07:47:43.359Z,1476
2016-10-03T07:48:43.375Z,1260
2016-10-03T07:49:43.406Z,1156
2016-10-03T07:50:43.413Z,1056
2016-10-03T07:51:43.420Z,1024
2016-10-03T07:52:43.446Z,1036
2016-10-03T07:53:43.457Z,1000
2016-10-03T07:54:43.478Z,972
2016-10-03T07:55:43.490Z,1020
2016-10-03T07:56:43.515Z,1148
2016-10-03T07:57:43.528Z,1200
2016-10-03T07:58:43.520Z,1188
2016-10-03T07:59:43.556Z,1132
2016-10-03T08:00:43.555Z,1164
2016-10-03T08:01:43.590Z,1272
2016-10-03T08:02:43.610Z,1516
2016-10-03T08:03:43.637Z,1792
2016-10-03T08:04:43.642Z,1832
2016-10-03T08:05:43.674Z,1852
2016-10-03T08:06:43.685Z,1904
2016-10-03T08:07:43.712Z,1740
2016-10-03T08:08:43.703Z,1656
2016-10-03T08:09:43.735Z,1796
2016-10-03T08:10:43.748Z,1988
2016-10-03T08:11:43.757Z,2148
2016-10-03T08:12:43.786Z,2196
2016-10-03T08:13:43.808Z,2136
2016-10-03T08:14:43.826Z,2036
2016-10-03T08:15:43.832Z,2056
2016-10-03T08:16:43.848Z,2024
2016-10-03T08:17:43.868Z,1896
2016-10-03T08:18:43.885Z,1840
2016-10-03T08:19:43.895Z,1864
2016-10-03T08:20:43.923Z,1904
2016-10-03T08:21:43.941Z,1876
2016-10-03T08:22:43.960Z,1804
2016-10-03T08:23:43.981Z,1808
2016-10-03T08:24:43.980Z,2024
2016-10-03T08:25:44.020Z,2380
2016-10-03T08:26:44.033Z,2688
2016-10-03T08:27:44.051Z,2800
2016-10-03T08:28:44.043Z,2688
2016-10-03T08:29:44.065Z,2344
2016-10-03T08:30:44.111Z,2048
2016-10-03T08:31:44.128Z,1976
2016-10-03T08:32:44.145Z,2072
2016-10-03T08:33:44.195Z,2304
2016-10-03T08:34:44.177Z,2592
2016-10-03T08:35:44.186Z,2728
2016-10-03T08:36:44.235Z,2536
2016-10-03T08:37:44.231Z,2428
2016-10-03T08:38:44.232Z,2452
2016-10-03T08:39:44.263Z,2268
2016-10-03T08:40:44.271Z,2040
2016-10-03T08:41:44.292Z,2044
2016-10-03T08:42:44.308Z,2108
2016-10-03T08:43:44.333Z,2164
2016-10-03T08:44:44.342Z,2088
2016-10-03T08:45:44.368Z,1924
2016-10-03T08:46:44.384Z,1952
2016-10-03T08:47:44.409Z,1996
2016-10-03T08:48:44.413Z,1856
2016-10-03T08:49:44.431Z,1656
2016-10-03T08:50:44.465Z,1496
2016-10-03T08:51:44.473Z,1436
2016-10-03T08:52:44.493Z,1412
2016-10-03T08:53:44.512Z,1416
2016-10-03T08:54:44.518Z,1500
2016-10-03T08:55:44.548Z,1620
2016-10-03T08:56:44.569Z,1664
2016-10-03T08:57:44.572Z,1688
2016-10-03T08:58:44.599Z,1768
2016-10-03T08:59:44.619Z,1808
2016-10-03T09:00:44.641Z,1656
2016-10-03T09:01:44.659Z,1624
2016-10-03T09:02:44.679Z,1592
2016-10-03T09:03:44.682Z,1676
2016-10-03T09:04:44.697Z,1848
2016-10-03T09:05:44.726Z,2192
2016-10-03T09:06:44.741Z,2252
2016-10-03T09:07:44.751Z,2084
2016-10-03T09:08:44.773Z,1964
2016-10-03T09:09:44.784Z,2004
2016-10-03T09:10:44.818Z,2028
2016-10-03T09:11:44.829Z,2084
2016-10-03T09:12:44.844Z,2104
2016-10-03T09:13:44.865Z,1964
2016-10-03T09:14:44.887Z,1776
2016-10-03T09:15:44.906Z,1600
2016-10-03T09:16:44.945Z,1548
2016-10-03T09:17:44.940Z,1620
2016-10-03T09:18:45.008Z,1844
2016-10-03T09:19:44.984Z,2236
2016-10-03T09:20:44.976Z,2812
2016-10-03T09:21:45.023Z,3496
2016-10-03T09:22:45.012Z,4044
2016-10-03T09:23:45.042Z,4564
2016-10-03T09:24:45.072Z,5200
2016-10-03T09:25:45.071Z,5884
2016-10-03T09:26:45.116Z,6072
2016-10-03T09:27:45.126Z,5920
2016-10-03T09:28:45.156Z,5664
2016-10-03T09:29:45.164Z,5276
2016-10-03T09:30:45.190Z,5364
2016-10-03T09:31:45.198Z,5780
2016-10-03T09:32:45.212Z,6256
2016-10-03T09:33:45.232Z,6620
2016-10-03T09:34:45.241Z,7196
2016-10-03T09:35:45.261Z,7044
2016-10-03T09:36:45.297Z,6780
2016-10-03T09:37:45.313Z,6504
2016-10-03T09:38:45.314Z,6468
2016-10-03T09:39:45.344Z,6544
2016-10-03T09:40:45.365Z,6676
2016-10-03T09:41:45.389Z,6768
2016-10-03T09:42:45.399Z,6796
2016-10-03T09:43:45.423Z,6992
2016-10-03T09:44:45.453Z,7420
2016-10-03T09:45:45.453Z,7816
2016-10-03T09:46:45.493Z,7948
2016-10-03T09:47:45.492Z,8480
2016-10-03T09:48:45.511Z,8132
2016-10-03T09:49:45.525Z,8380
2016-10-03T09:50:45.549Z,8300
2016-10-03T09:51:45.576Z,8268
2016-10-03T09:52:45.599Z,8592
2016-10-03T09:53:45.619Z,8228
2016-10-03T09:54:45.638Z,7620
2016-10-03T09:55:45.629Z,7120
2016-10-03T09:56:45.663Z,7032
2016-10-03T09:57:45.669Z,6532
2016-10-03T09:58:45.713Z,6060
2016-10-03T09:59:45.735Z,6096
2016-10-03T10:00:45.754Z,6204
2016-10-03T10:01:45.785Z,6308
2016-10-03T10:02:45.796Z,5760
2016-10-03T10:03:45.799Z,5060
2016-10-03T10:04:45.832Z,4196
2016-10-03T10:05:45.834Z,3852
2016-10-03T10:06:45.859Z,3572
2016-10-03T10:07:45.891Z,3236
2016-10-03T10:08:45.906Z,2960
2016-10-03T10:09:45.928Z,2792
2016-10-03T10:10:45.936Z,2896
2016-10-03T10:11:45.968Z,3168
2016-10-03T10:12:45.976Z,3528
2016-10-03T10:13:46.004Z,3972
2016-10-03T10:14:46.006Z,4372
2016-10-03T10:15:46.033Z,4748
2016-10-03T10:16:46.084Z,5360
2016-10-03T10:17:46.071Z,5772
2016-10-03T10:18:46.095Z,5696
2016-10-03T10:19:46.112Z,5536
2016-10-03T10:20:46.167Z,4772
2016-10-03T10:21:46.157Z,3756
2016-10-03T10:22:46.168Z,3148
2016-10-03T10:23:46.194Z,2888
2016-10-03T10:24:46.217Z,2808
2016-10-03T10:25:46.229Z,2996
2016-10-03T10:26:46.232Z,3276
2016-10-03T10:27:46.261Z,3500
2016-10-03T10:28:46.279Z,3808
2016-10-03T10:29:46.296Z,3536
2016-10-03T10:30:46.317Z,3400
2016-10-03T10:31:46.336Z,3496
2016-10-03T10:32:46.372Z,3760
2016-10-03T10:33:46.375Z,4404
2016-10-03T10:34:46.400Z,5364
2016-10-03T10:35:46.418Z,5844
2016-10-03T10:36:46.430Z,6016
2016-10-03T10:37:46.441Z,5852
2016-10-03T10:38:46.483Z,5744
2016-10-03T10:39:46.496Z,5640
2016-10-03T10:40:46.515Z,5416
2016-10-03T10:41:46.516Z,5316
2016-10-03T10:42:46.540Z,5384
2016-10-03T10:43:46.555Z,5308
2016-10-03T10:44:46.578Z,5388
2016-10-03T10:45:46.605Z,5452
2016-10-03T10:46:46.623Z,5356
2016-10-03T10:47:46.628Z,5480
2016-10-03T10:48:46.655Z,5620
2016-10-03T10:49:46.666Z,5552
2016-10-03T10:50:46.703Z,5436
2016-10-03T10:51:46.725Z,5596
2016-10-03T10:52:46.725Z,6036
2016-10-03T10:53:46.775Z,6404
2016-10-03T10:54:46.764Z,6968
2016-10-03T10:55:46.786Z,7496
2016-10-03T10:56:46.803Z,7784
2016-10-03T10:57:46.825Z,7988
2016-10-03T10:58:46.837Z,8092
2016-10-03T10:59:46.862Z,8208
2016-10-03T11:00:46.880Z,8332
2016-10-03T11:01:46.902Z,8488
2016-10-03T11:02:46.931Z,8056
2016-10-03T11:03:46.934Z,7928
2016-10-03T11:04:46.968Z,8104
2016-10-03T11:05:46.973Z,8464
2016-10-03T11:06:47.001Z,8724
2016-10-03T11:07:47.069Z,8856
2016-10-03T11:08:47.059Z,8992
2016-10-03T11:09:47.055Z,9000
2016-10-03T11:10:47.091Z,9192
2016-10-03T11:11:47.096Z,8184
2016-10-03T11:12:47.122Z,7340
2016-10-03T11:13:47.144Z,6684
2016-10-03T11:14:47.156Z,6120
2016-10-03T11:15:47.159Z,5580
2016-10-03T11:16:47.199Z,4708
2016-10-03T11:17:47.217Z,4348
2016-10-03T11:18:47.222Z,4448
2016-10-03T11:19:47.256Z,4620
2016-10-03T11:20:47.271Z,4604
2016-10-03T11:21:47.300Z,4616
2016-10-03T11:22:47.329Z,4688
2016-10-03T11:23:47.320Z,4504
2016-10-03T11:24:47.361Z,4264
2016-10-03T11:25:47.373Z,4152
2016-10-03T11:26:47.397Z,3976
2016-10-03T11:27:47.416Z,3740
2016-10-03T11:28:47.438Z,3656
2016-10-03T11:29:47.451Z,3592
2016-10-03T11:30:47.471Z,3244
2016-10-03T11:31:47.498Z,2644
2016-10-03T11:32:47.508Z,2232
2016-10-03T11:33:47.533Z,2196
2016-10-03T11:34:47.547Z,2388
2016-10-03T11:35:47.558Z,2488
2016-10-03T11:36:47.581Z,2516
2016-10-03T11:37:47.699Z,2408
2016-10-03T11:38:47.636Z,2180
2016-10-03T11:39:47.644Z,2024
2016-10-03T11:40:47.680Z,1932
2016-10-03T11:41:47.689Z,1904
2016-10-03T11:42:47.682Z,2004
2016-10-03T11:43:47.713Z,2204
2016-10-03T11:44:47.731Z,2476
2016-10-03T11:45:47.762Z,2876
2016-10-03T11:46:47.766Z,3392
2016-10-03T11:47:47.807Z,3988
2016-10-03T11:48:47.811Z,4560
2016-10-03T11:49:47.840Z,5128
2016-10-03T11:50:47.848Z,5512
2016-10-03T11:51:47.881Z,5956
2016-10-03T11:52:47.892Z,6300
2016-10-03T11:53:47.912Z,6488
2016-10-03T11:54:47.949Z,6508
2016-10-03T11:55:47.943Z,6664
2016-10-03T11:56:47.966Z,6816
2016-10-03T11:57:47.989Z,7000
2016-10-03T11:58:47.991Z,7128
2016-10-03T11:59:48.022Z,7092
2016-10-03T12:00:48.037Z,7272
2016-10-03T12:01:48.056Z,7800
2016-10-03T12:02:48.088Z,8896
2016-10-03T12:03:48.111Z,7140
2016-10-03T12:04:48.103Z,5340
2016-10-03T12:05:48.149Z,7176
2016-10-03T12:06:48.152Z,4628
2016-10-03T12:07:48.176Z,3604
2016-10-03T12:08:48.199Z,3248
2016-10-03T12:09:48.215Z,2944
2016-10-03T12:10:48.235Z,2724
2016-10-03T12:11:48.243Z,2536
2016-10-03T12:12:48.270Z,2456
2016-10-03T12:13:48.289Z,2436
2016-10-03T12:14:48.340Z,2440
2016-10-03T12:15:48.345Z,2464
2016-10-03T12:16:48.353Z,2544
2016-10-03T12:17:48.371Z,2640
2016-10-03T12:18:48.389Z,2740
2016-10-03T12:19:48.407Z,2872
2016-10-03T12:20:48.427Z,3056
2016-10-03T12:21:48.443Z,3252
2016-10-03T12:22:48.487Z,3476
2016-10-03T12:23:48.490Z,3648
2016-10-03T12:24:48.508Z,3836
2016-10-03T12:25:48.508Z,4052
2016-10-03T12:26:48.538Z,4328
2016-10-03T12:27:48.544Z,4636
2016-10-03T12:28:48.587Z,4908
2016-10-03T12:29:48.604Z,5160
2016-10-03T12:30:48.614Z,5364
2016-10-03T12:31:48.637Z,5632
2016-10-03T12:32:48.670Z,5912
2016-10-03T12:33:48.677Z,6080
2016-10-03T12:34:48.694Z,5924
2016-10-03T12:35:48.719Z,5880
2016-10-03T12:36:48.729Z,6088
2016-10-03T12:37:48.757Z,6240
2016-10-03T12:38:48.779Z,6444
2016-10-03T12:39:48.804Z,6712
2016-10-03T12:40:48.800Z,6772
2016-10-03T12:41:48.837Z,6764
2016-10-03T12:42:48.867Z,6804
2016-10-03T12:43:48.880Z,6920
2016-10-03T12:44:48.869Z,7000
2016-10-03T12:45:48.907Z,7060
2016-10-03T12:46:48.932Z,7132
2016-10-03T12:47:48.948Z,7192
2016-10-03T12:48:48.974Z,7192
2016-10-03T12:49:48.985Z,7260
2016-10-03T12:50:49.009Z,7316
2016-10-03T12:51:49.048Z,7568
2016-10-03T12:52:49.046Z,8064
2016-10-03T12:53:49.065Z,8020
2016-10-03T12:54:49.066Z,8028
2016-10-03T12:55:49.099Z,7704
2016-10-03T12:56:49.131Z,9124
2016-10-03T12:57:49.148Z,9176
2016-10-03T12:58:49.180Z,8736
2016-10-03T12:59:49.252Z,6624
2016-10-03T13:00:49.255Z,6204
2016-10-03T13:01:49.233Z,7608
2016-10-03T13:02:49.245Z,6396
2016-10-03T13:03:49.279Z,5136
2016-10-03T13:04:49.282Z,5068
2016-10-03T13:05:49.306Z,5000
2016-10-03T13:06:49.344Z,4868
2016-10-03T13:07:49.352Z,4720
2016-10-03T13:08:49.385Z,4844
2016-10-03T13:09:49.437Z,4552
2016-10-03T13:10:49.404Z,4496
2016-10-03T13:11:49.461Z,4684
2016-10-03T13:12:49.467Z,4080
2016-10-03T13:13:49.464Z,3820
2016-10-03T13:14:49.492Z,3660
2016-10-03T13:15:49.522Z,3712
2016-10-03T13:16:49.548Z,3876
2016-10-03T13:17:49.584Z,4060
2016-10-03T13:18:49.629Z,4232
2016-10-03T13:19:49.626Z,4380
2016-10-03T13:20:49.664Z,4632
2016-10-03T13:21:49.649Z,4880
2016-10-03T13:22:49.650Z,4920
2016-10-03T13:23:49.677Z,5072
2016-10-03T13:24:49.708Z,5316
2016-10-03T13:25:49.712Z,5388
2016-10-03T13:26:49.737Z,5404
2016-10-03T13:27:49.742Z,5368
2016-10-03T13:28:49.782Z,5520
2016-10-03T13:29:49.806Z,5432
2016-10-03T13:30:49.815Z,5604
2016-10-03T13:31:49.829Z,6680
2016-10-03T13:32:49.858Z,5308
2016-10-03T13:33:49.865Z,6312
2016-10-03T13:34:49.896Z,6216
2016-10-03T13:35:49.915Z,6320
2016-10-03T13:36:49.936Z,6604
2016-10-03T13:37:49.952Z,6848
2016-10-03T13:38:49.976Z,6840
2016-10-03T13:39:50.006Z,6744
2016-10-03T13:40:50.003Z,6088
2016-10-03T13:41:50.038Z,7036
2016-10-03T13:42:50.045Z,7236
2016-10-03T13:43:50.069Z,7332
2016-10-03T13:44:50.097Z,7308
2016-10-03T13:45:50.118Z,7196
2016-10-03T13:46:50.122Z,7112
2016-10-03T13:47:50.148Z,7076
2016-10-03T13:48:50.170Z,6996
2016-10-03T13:49:50.186Z,6880
2016-10-03T13:50:50.216Z,6956
2016-10-03T13:51:50.236Z,7004
2016-10-03T13:52:50.253Z,6064
2016-10-03T13:53:50.263Z,7064
2016-10-03T13:54:50.306Z,5896
2016-10-03T13:55:50.321Z,5772
2016-10-03T13:56:50.345Z,7240
2016-10-03T13:57:50.358Z,6976